Time;durP1;ratioP1;P1;durP2;ratioP2;P2;SDS_P1;SDS_P2;PMS_P1;PMS_P2;Temp;Humidity;BMP_temperature;BMP_pressure;BME280_temperature;BME280_humidity;BME280_pressure;Samples;Min_cycle;Max_cycle;Signal;HPM_P1;HPM_P2
2022/09/26 00:01:05;;;;;;;;;;;11.30;99.90;;;;;;5080828;28;19973;-73
2022/09/26 00:03:37;;;;;;;;;;;11.30;99.90;;;;;;5058870;28;19935;-73
2022/09/26 00:06:09;;;;;;;;;;;11.30;99.90;;;;;;5075211;28;19925;-73
2022/09/26 00:08:41;;;;;;;;;;;11.30;99.90;;;;;;5066689;28;19982;-73
2022/09/26 00:11:13;;;;;;;;;;;11.30;99.90;;;;;;5054649;28;20457;-73
2022/09/26 00:13:45;;;;;;;;;;;11.30;99.90;;;;;;5048250;28;19924;-73
2022/09/26 00:16:17;;;;;;;;;;;11.30;99.90;;;;;;5070383;28;20346;-73
2022/09/26 00:18:49;;;;;;;;;;;11.30;99.90;;;;;;5063210;28;19928;-73
2022/09/26 00:21:21;;;;;;;;;;;11.20;99.90;;;;;;5060043;28;19931;-72
2022/09/26 00:23:53;;;;;;;;;;;11.20;99.90;;;;;;5082933;28;19985;-73
2022/09/26 00:26:25;;;;;;;;;;;11.20;99.90;;;;;;5062874;28;20294;-73
2022/09/26 00:28:57;;;;;;;;;;;11.20;99.90;;;;;;5049120;28;19970;-73
2022/09/26 00:31:31;;;;;;;;;;;11.20;99.90;;;;;;5079838;28;19977;-73
2022/09/26 00:34:03;;;;;;;;;;;11.20;99.90;;;;;;5066787;28;20362;-73
2022/09/26 00:36:34;;;;;;;;;;;11.20;99.90;;;;;;5057878;28;19928;-73
2022/09/26 00:39:01;;;;;;;;;;;11.20;99.90;;;;;;5067371;28;19928;-72
2022/09/26 00:41:33;;;;;;;;;;;11.20;99.90;;;;;;5052965;28;20445;-73
2022/09/26 00:44:23;;;;;;;;;;;11.20;99.90;;;;;;5060156;28;19925;-73
2022/09/26 00:46:54;;;;;;;;;;;11.20;99.90;;;;;;5059992;28;19924;-73
2022/09/26 00:49:34;;;;;;;;;;;11.20;99.90;;;;;;5063371;28;19985;-73
2022/09/26 00:52:35;;;;;;;;;;;11.20;99.90;;;;;;5053740;28;19978;-73
2022/09/26 00:55:07;;;;;;;;;;;11.20;99.90;;;;;;5054002;28;19928;-73
2022/09/26 00:57:47;;;;;;;;;;;11.20;99.90;;;;;;5064466;28;19924;-73
2022/09/26 01:00:19;;;;;;;;;;;11.20;99.90;;;;;;5058667;28;19928;-73
2022/09/26 01:02:51;;;;;;;;;;;11.20;99.90;;;;;;5054571;28;20333;-73
2022/09/26 01:05:23;;;;;;;;;;;11.20;99.90;;;;;;5064822;28;20382;-73
2022/09/26 01:07:56;;;;;;;;;;;11.20;99.90;;;;;;5058055;28;19924;-72
2022/09/26 01:10:28;;;;;;;;;;;11.20;99.90;;;;;;5062591;28;19955;-73
2022/09/26 01:13:00;;;;;;;;;;;11.20;99.90;;;;;;5083001;28;19978;-73
2022/09/26 01:15:27;;;;;;;;;;;11.20;99.90;;;;;;5050000;28;20438;-73
2022/09/26 01:17:59;;;;;;;;;;;11.20;99.90;;;;;;5061262;28;19974;-72
2022/09/26 01:20:41;;;;;;;;;;;11.20;99.90;;;;;;5062169;28;19925;-73
2022/09/26 01:23:19;;;;;;;;;;;11.10;99.90;;;;;;5057280;28;19929;-73
2022/09/26 01:25:51;;;;;;;;;;;11.20;99.90;;;;;;5064698;28;19974;-73
2022/09/26 01:28:29;;;;;;;;;;;11.10;99.90;;;;;;5055382;28;19956;-73
2022/09/26 01:31:21;;;;;;;;;;;11.20;99.90;;;;;;5064951;28;19928;-73
2022/09/26 01:34:06;;;;;;;;;;;11.10;99.90;;;;;;5072443;28;19932;-72
2022/09/26 01:36:38;;;;;;;;;;;11.10;99.90;;;;;;5046680;28;19975;-73
2022/09/26 01:39:43;;;;;;;;;;;11.10;99.90;;;;;;5084137;28;19974;-73
2022/09/26 01:42:35;;;;;;;;;;;11.10;99.90;;;;;;4961261;28;20030;-73
2022/09/26 01:45:14;;;;;;;;;;;11.00;99.90;;;;;;4953080;28;20300;-73
2022/09/26 01:47:49;;;;;;;;;;;11.00;99.90;;;;;;5027684;28;19929;-73
2022/09/26 01:50:33;;;;;;;;;;;11.00;99.90;;;;;;5054797;28;19924;-73
2022/09/26 01:53:15;;;;;;;;;;;11.00;99.90;;;;;;5052018;28;19978;-73
2022/09/26 01:55:53;;;;;;;;;;;11.00;99.90;;;;;;5080886;28;19924;-72
2022/09/26 01:58:48;;;;;;;;;;;11.00;99.90;;;;;;5074482;28;19931;-72
2022/09/26 02:01:21;;;;;;;;;;;11.10;99.90;;;;;;5047757;28;19929;-73
2022/09/26 02:03:51;;;;;;;;;;;11.00;99.90;;;;;;5048146;28;19931;-72
2022/09/26 02:06:26;;;;;;;;;;;11.00;99.90;;;;;;5064893;28;19932;-73
2022/09/26 02:09:06;;;;;;;;;;;11.10;99.90;;;;;;5036831;28;19932;-73
2022/09/26 02:11:42;;;;;;;;;;;11.00;99.90;;;;;;5077556;28;19959;-73
2022/09/26 02:14:12;;;;;;;;;;;11.10;99.90;;;;;;5043665;28;19943;-73
2022/09/26 02:16:48;;;;;;;;;;;11.00;99.90;;;;;;5057780;28;20445;-73
2022/09/26 02:19:23;;;;;;;;;;;11.00;99.90;;;;;;5055607;28;19928;-72
2022/09/26 02:21:55;;;;;;;;;;;11.00;99.90;;;;;;5074591;28;19924;-72
2022/09/26 02:24:27;;;;;;;;;;;11.00;99.90;;;;;;5050989;28;19928;-72
2022/09/26 02:27:00;;;;;;;;;;;11.00;99.90;;;;;;5056624;28;19924;-73
2022/09/26 02:29:33;;;;;;;;;;;11.00;99.90;;;;;;5058214;28;19970;-72
2022/09/26 02:32:11;;;;;;;;;;;10.90;99.90;;;;;;5057350;28;19928;-72
2022/09/26 02:34:44;;;;;;;;;;;11.00;99.90;;;;;;5058981;28;20353;-72
2022/09/26 02:37:16;;;;;;;;;;;11.00;99.90;;;;;;5077311;28;19932;-71
2022/09/26 02:39:49;;;;;;;;;;;11.00;99.90;;;;;;5075283;28;19925;-72
2022/09/26 02:42:41;;;;;;;;;;;11.00;99.90;;;;;;5057197;28;20287;-72
2022/09/26 02:45:28;;;;;;;;;;;11.00;99.90;;;;;;5038313;28;19928;-72
2022/09/26 02:48:00;;;;;;;;;;;11.00;99.90;;;;;;5036922;28;20380;-72
2022/09/26 02:50:40;;;;;;;;;;;11.00;99.90;;;;;;5053468;28;19924;-72
2022/09/26 02:53:20;;;;;;;;;;;11.00;99.90;;;;;;5044137;28;19925;-72
2022/09/26 02:55:55;;;;;;;;;;;11.00;99.90;;;;;;5053521;28;19974;-73
2022/09/26 02:58:41;;;;;;;;;;;11.00;99.90;;;;;;5058053;28;20379;-72
2022/09/26 03:01:14;;;;;;;;;;;11.00;99.90;;;;;;5056854;28;20338;-72
2022/09/26 03:04:07;;;;;;;;;;;11.00;99.90;;;;;;5040248;28;19924;-71
2022/09/26 03:06:41;;;;;;;;;;;11.00;99.90;;;;;;5057920;28;20387;-73
2022/09/26 03:09:09;;;;;;;;;;;11.00;99.90;;;;;;5056181;28;19936;-72
2022/09/26 03:11:42;;;;;;;;;;;11.00;99.90;;;;;;5059138;28;19932;-72
2022/09/26 03:14:15;;;;;;;;;;;11.00;99.90;;;;;;5061517;28;19951;-72
2022/09/26 03:16:47;;;;;;;;;;;11.00;99.90;;;;;;5062652;28;19932;-72
2022/09/26 03:19:28;;;;;;;;;;;11.00;99.90;;;;;;5073791;28;19925;-72
2022/09/26 03:21:55;;;;;;;;;;;11.00;99.90;;;;;;5057055;28;19931;-71
2022/09/26 03:24:28;;;;;;;;;;;11.00;99.90;;;;;;5046755;28;19929;-72
2022/09/26 03:26:57;;;;;;;;;;;10.90;99.90;;;;;;5072291;28;19931;-76
2022/09/26 03:29:24;;;;;;;;;;;10.90;99.90;;;;;;5070851;28;20019;-73
2022/09/26 03:31:56;;;;;;;;;;;10.90;99.90;;;;;;5073478;28;19925;-72
2022/09/26 03:34:27;;;;;;;;;;;10.90;99.90;;;;;;5056369;28;20441;-72
2022/09/26 03:36:59;;;;;;;;;;;10.90;99.90;;;;;;5053432;28;19971;-72
2022/09/26 03:39:31;;;;;;;;;;;10.90;99.90;;;;;;5056052;28;20284;-72
2022/09/26 03:42:13;;;;;;;;;;;10.90;99.90;;;;;;5020894;28;19932;-72
2022/09/26 03:44:45;;;;;;;;;;;10.90;99.90;;;;;;5052004;28;19975;-72
2022/09/26 03:47:29;;;;;;;;;;;10.90;99.90;;;;;;5054561;28;19960;-72
2022/09/26 03:50:02;;;;;;;;;;;10.90;99.90;;;;;;5065649;28;19924;-71
2022/09/26 03:52:29;;;;;;;;;;;10.90;99.90;;;;;;5073156;28;19977;-72
2022/09/26 03:55:02;;;;;;;;;;;10.80;99.90;;;;;;5062551;28;20422;-73
2022/09/26 03:57:34;;;;;;;;;;;10.80;99.90;;;;;;5056105;28;20438;-72
2022/09/26 04:00:16;;;;;;;;;;;10.80;99.90;;;;;;5052726;28;19994;-72
2022/09/26 04:02:44;;;;;;;;;;;10.80;99.90;;;;;;5067596;28;19982;-72
2022/09/26 04:05:33;;;;;;;;;;;10.80;99.90;;;;;;5056356;28;19924;-72
2022/09/26 04:08:06;;;;;;;;;;;10.70;99.90;;;;;;5055978;28;19925;-73
2022/09/26 04:10:37;;;;;;;;;;;10.70;99.90;;;;;;5039859;28;19925;-72
2022/09/26 04:13:09;;;;;;;;;;;10.70;99.90;;;;;;5064926;28;19978;-72
2022/09/26 04:15:40;;;;;;;;;;;10.70;99.90;;;;;;5053975;28;19931;-72
2022/09/26 04:18:12;;;;;;;;;;;10.70;99.90;;;;;;5048686;28;19924;-71
2022/09/26 04:20:44;;;;;;;;;;;10.70;99.90;;;;;;5055993;28;19936;-72
2022/09/26 04:23:16;;;;;;;;;;;10.70;99.90;;;;;;5052547;28;20383;-73
2022/09/26 04:25:48;;;;;;;;;;;10.60;99.90;;;;;;5065922;28;19959;-74
2022/09/26 04:28:20;;;;;;;;;;;10.70;99.90;;;;;;5060542;28;19952;-72
2022/09/26 04:30:55;;;;;;;;;;;10.70;99.90;;;;;;5040200;28;19931;-72
2022/09/26 04:33:23;;;;;;;;;;;10.70;99.90;;;;;;5060653;28;19930;-72
2022/09/26 04:36:07;;;;;;;;;;;10.70;99.90;;;;;;5055302;28;19924;-72
2022/09/26 04:38:39;;;;;;;;;;;10.60;99.90;;;;;;5028631;28;19924;-73
2022/09/26 04:41:15;;;;;;;;;;;10.70;99.90;;;;;;5054715;28;20393;-73
2022/09/26 04:43:48;;;;;;;;;;;10.60;99.90;;;;;;5080245;28;19924;-72
2022/09/26 04:46:21;;;;;;;;;;;10.60;99.90;;;;;;5067889;28;19925;-72
2022/09/26 04:48:55;;;;;;;;;;;10.60;99.90;;;;;;5044288;28;19932;-72
2022/09/26 04:51:27;;;;;;;;;;;10.60;99.90;;;;;;5048546;28;20027;-72
2022/09/26 04:53:59;;;;;;;;;;;10.60;99.90;;;;;;5064457;28;19970;-72
2022/09/26 04:56:37;;;;;;;;;;;10.50;99.90;;;;;;5054878;28;19933;-72
2022/09/26 04:59:08;;;;;;;;;;;10.50;99.90;;;;;;5050234;28;19932;-72
2022/09/26 05:01:56;;;;;;;;;;;10.50;99.90;;;;;;5067782;28;19928;-72
2022/09/26 05:04:34;;;;;;;;;;;10.50;99.90;;;;;;5071718;28;19928;-72
2022/09/26 05:07:06;;;;;;;;;;;10.50;99.90;;;;;;5069589;28;20541;-72
2022/09/26 05:09:33;;;;;;;;;;;10.40;99.90;;;;;;5065420;28;19935;-72
2022/09/26 05:12:04;;;;;;;;;;;10.40;99.90;;;;;;5051694;28;19939;-72
2022/09/26 05:14:37;;;;;;;;;;;10.40;99.90;;;;;;5041050;28;19931;-73
2022/09/26 05:17:10;;;;;;;;;;;10.30;99.90;;;;;;5077850;28;20604;-71
2022/09/26 05:19:44;;;;;;;;;;;10.30;99.90;;;;;;5065249;28;20405;-72
2022/09/26 05:22:21;;;;;;;;;;;10.20;99.90;;;;;;5071782;28;19977;-74
2022/09/26 05:27:38;;;;;;;;;;;10.20;99.90;;;;;;5061968;28;19927;-73
2022/09/26 05:30:13;;;;;;;;;;;10.20;99.90;;;;;;5066326;28;19928;-72
2022/09/26 05:32:47;;;;;;;;;;;10.20;99.90;;;;;;5056963;28;19932;-71
2022/09/26 05:35:19;;;;;;;;;;;10.20;99.90;;;;;;5043218;28;19925;-72
2022/09/26 05:37:58;;;;;;;;;;;10.20;99.90;;;;;;5055709;28;19928;-72
2022/09/26 05:43:16;;;;;;;;;;;10.20;99.90;;;;;;5064406;28;19932;-72
2022/09/26 05:45:49;;;;;;;;;;;10.20;99.90;;;;;;5073025;28;19938;-72
2022/09/26 05:48:25;;;;;;;;;;;10.20;99.90;;;;;;5069965;28;20019;-73
2022/09/26 05:51:00;;;;;;;;;;;10.20;99.90;;;;;;5066177;28;20303;-73
2022/09/26 05:53:32;;;;;;;;;;;10.30;99.90;;;;;;5060964;28;19970;-72
2022/09/26 05:56:05;;;;;;;;;;;10.30;99.90;;;;;;5089670;28;19931;-72
2022/09/26 05:58:56;;;;;;;;;;;10.30;99.90;;;;;;5055726;28;19933;-71
2022/09/26 06:01:46;;;;;;;;;;;10.30;99.90;;;;;;5058489;28;19948;-73
2022/09/26 06:04:47;;;;;;;;;;;10.30;99.90;;;;;;5067917;28;19993;-72
2022/09/26 06:07:32;;;;;;;;;;;10.40;99.90;;;;;;5062731;28;19924;-72
2022/09/26 06:10:08;;;;;;;;;;;10.40;99.90;;;;;;5065766;28;19934;-73
2022/09/26 06:12:42;;;;;;;;;;;10.50;99.90;;;;;;5043023;28;20485;-72
2022/09/26 06:15:14;;;;;;;;;;;10.40;99.90;;;;;;5074925;28;19933;-73
2022/09/26 06:17:47;;;;;;;;;;;10.40;99.90;;;;;;5076122;28;20011;-72
2022/09/26 06:20:13;;;;;;;;;;;10.40;99.90;;;;;;5062715;28;19982;-72
2022/09/26 06:22:45;;;;;;;;;;;10.50;99.90;;;;;;5062736;28;19929;-72
2022/09/26 06:25:16;;;;;;;;;;;10.50;99.90;;;;;;5056897;28;19925;-72
2022/09/26 06:27:48;;;;;;;;;;;10.50;99.90;;;;;;5040064;28;19971;-72
2022/09/26 06:30:22;;;;;;;;;;;10.50;99.90;;;;;;5056902;28;20465;-72
2022/09/26 06:33:00;;;;;;;;;;;10.50;99.90;;;;;;5049554;28;19925;-73
2022/09/26 06:35:36;;;;;;;;;;;10.50;99.90;;;;;;5076672;28;20015;-73
2022/09/26 06:38:14;;;;;;;;;;;10.60;99.90;;;;;;5065792;28;19924;-72
2022/09/26 06:40:46;;;;;;;;;;;10.60;99.90;;;;;;5090789;28;19993;-72
2022/09/26 06:43:13;;;;;;;;;;;10.60;99.90;;;;;;5073755;28;19956;-72
2022/09/26 06:46:10;;;;;;;;;;;10.60;99.90;;;;;;5034678;28;19925;-72
2022/09/26 06:48:54;;;;;;;;;;;10.60;99.90;;;;;;5062531;28;19924;-72
2022/09/26 06:51:40;;;;;;;;;;;10.60;99.90;;;;;;5057027;28;19931;-73
2022/09/26 06:54:08;;;;;;;;;;;10.70;99.90;;;;;;5066848;28;20341;-73
2022/09/26 06:56:35;;;;;;;;;;;10.70;99.90;;;;;;5062859;28;19951;-72
2022/09/26 06:59:07;;;;;;;;;;;10.70;99.90;;;;;;5064084;28;19924;-72
2022/09/26 07:01:48;;;;;;;;;;;10.70;99.90;;;;;;5076915;28;19971;-71
2022/09/26 07:04:58;;;;;;;;;;;10.80;99.90;;;;;;4997427;28;19925;-71
2022/09/26 07:07:39;;;;;;;;;;;10.80;99.90;;;;;;4985395;28;19926;-71
2022/09/26 07:10:20;;;;;;;;;;;10.80;99.90;;;;;;5049517;28;19931;-72
2022/09/26 07:13:02;;;;;;;;;;;10.80;99.90;;;;;;5075302;28;19931;-72
2022/09/26 07:15:35;;;;;;;;;;;10.80;99.90;;;;;;5066037;28;19997;-72
2022/09/26 07:18:21;;;;;;;;;;;10.90;99.90;;;;;;5061275;28;19927;-72
2022/09/26 07:21:14;;;;;;;;;;;10.90;99.90;;;;;;5048858;28;19928;-73
2022/09/26 07:23:48;;;;;;;;;;;10.90;99.90;;;;;;5059402;28;19931;-72
2022/09/26 07:26:19;;;;;;;;;;;11.00;99.90;;;;;;5072716;28;20018;-72
2022/09/26 07:28:51;;;;;;;;;;;11.00;99.90;;;;;;5071280;28;20352;-72
2022/09/26 07:31:25;;;;;;;;;;;11.00;99.90;;;;;;5081644;28;19931;-73
2022/09/26 07:34:06;;;;;;;;;;;11.10;99.90;;;;;;5070636;28;19931;-73
2022/09/26 07:36:39;;;;;;;;;;;11.20;99.90;;;;;;5062676;28;19992;-72
2022/09/26 07:39:11;;;;;;;;;;;11.20;99.90;;;;;;5065162;28;19931;-73
2022/09/26 07:41:39;;;;;;;;;;;11.30;99.90;;;;;;5054592;28;19925;-72
2022/09/26 07:44:10;;;;;;;;;;;11.30;99.90;;;;;;5050360;28;19928;-72
2022/09/26 07:52:21;;;;;;;;;;;11.40;99.90;;;;;;5074093;28;19924;-73
2022/09/26 07:55:15;;;;;;;;;;;11.50;99.90;;;;;;5052105;28;20410;-73
2022/09/26 07:57:59;;;;;;;;;;;11.50;99.90;;;;;;5056717;28;20330;-72
2022/09/26 08:00:46;;;;;;;;;;;11.60;99.90;;;;;;5057922;28;19970;-73
2022/09/26 08:03:43;;;;;;;;;;;11.60;99.90;;;;;;5045506;28;19931;-72
2022/09/26 08:06:40;;;;;;;;;;;11.60;99.90;;;;;;5084378;28;19932;-74
2022/09/26 08:09:12;;;;;;;;;;;11.70;99.90;;;;;;5080778;28;19932;-72
2022/09/26 08:12:03;;;;;;;;;;;11.70;99.90;;;;;;5059191;28;19932;-72
2022/09/26 08:14:48;;;;;;;;;;;11.70;99.90;;;;;;5055295;28;20310;-73
2022/09/26 08:17:35;;;;;;;;;;;11.60;99.90;;;;;;5066714;28;19935;-72
2022/09/26 08:20:08;;;;;;;;;;;11.60;99.90;;;;;;5082622;28;19950;-73
2022/09/26 08:22:39;;;;;;;;;;;11.60;99.90;;;;;;5052269;28;19924;-72
2022/09/26 08:25:13;;;;;;;;;;;11.60;99.90;;;;;;5054624;28;19924;-73
2022/09/26 08:27:51;;;;;;;;;;;11.60;99.90;;;;;;5058093;28;20420;-72
2022/09/26 08:30:24;;;;;;;;;;;11.50;99.90;;;;;;5054779;28;19925;-74
2022/09/26 08:32:57;;;;;;;;;;;11.60;99.90;;;;;;5054281;28;19932;-73
2022/09/26 08:35:34;;;;;;;;;;;11.60;99.90;;;;;;5077972;28;20295;-72
2022/09/26 08:38:14;;;;;;;;;;;11.70;99.90;;;;;;5059686;28;19964;-74
2022/09/26 08:41:12;;;;;;;;;;;11.80;99.90;;;;;;5050178;28;19931;-74
2022/09/26 08:44:23;;;;;;;;;;;11.90;99.90;;;;;;5058299;28;20382;-73
2022/09/26 08:47:38;;;;;;;;;;;12.00;99.90;;;;;;5080804;28;19935;-74
2022/09/26 08:50:37;;;;;;;;;;;12.10;99.90;;;;;;5067081;28;20365;-73
2022/09/26 08:53:12;;;;;;;;;;;12.10;99.90;;;;;;5056145;28;19924;-74
2022/09/26 08:55:55;;;;;;;;;;;12.10;99.90;;;;;;5073070;28;19929;-73
2022/09/26 08:58:38;;;;;;;;;;;12.20;99.90;;;;;;5043117;28;19929;-74
2022/09/26 09:01:17;;;;;;;;;;;12.20;99.90;;;;;;5062228;28;19928;-73
2022/09/26 09:04:21;;;;;;;;;;;12.30;99.90;;;;;;5061765;28;19980;-73
2022/09/26 09:06:55;;;;;;;;;;;12.40;99.90;;;;;;5056520;28;20035;-73
2022/09/26 09:09:27;;;;;;;;;;;12.40;99.90;;;;;;5057080;28;19923;-73
2022/09/26 09:12:31;;;;;;;;;;;12.40;99.90;;;;;;5070827;28;19932;-74
2022/09/26 09:15:32;;;;;;;;;;;12.40;99.90;;;;;;5079936;28;20376;-74
2022/09/26 09:18:17;;;;;;;;;;;12.50;99.90;;;;;;5061758;28;20014;-74
2022/09/26 09:21:30;;;;;;;;;;;12.50;99.90;;;;;;5059946;28;19924;-74
2022/09/26 09:24:23;;;;;;;;;;;12.50;99.90;;;;;;5052294;28;19947;-73
2022/09/26 09:27:15;;;;;;;;;;;12.50;99.90;;;;;;5059433;28;19963;-73
2022/09/26 09:30:00;;;;;;;;;;;12.70;99.90;;;;;;5050890;28;19932;-74
2022/09/26 09:33:12;;;;;;;;;;;12.80;99.90;;;;;;5033928;28;19929;-73
2022/09/26 09:35:48;;;;;;;;;;;12.90;99.90;;;;;;5047429;28;20441;-74
2022/09/26 09:38:44;;;;;;;;;;;13.00;99.90;;;;;;5039021;28;20351;-74
2022/09/26 09:41:28;;;;;;;;;;;13.00;99.90;;;;;;5055174;28;20391;-74
2022/09/26 09:44:08;;;;;;;;;;;13.00;99.90;;;;;;5040386;28;19979;-73
2022/09/26 09:46:37;;;;;;;;;;;13.10;99.90;;;;;;5055681;28;19951;-74
2022/09/26 09:49:08;;;;;;;;;;;13.00;99.90;;;;;;5064376;28;19982;-73
2022/09/26 09:51:58;;;;;;;;;;;13.00;99.90;;;;;;5055145;28;20283;-73
2022/09/26 09:54:45;;;;;;;;;;;13.00;99.90;;;;;;5047178;28;19928;-73
2022/09/26 09:57:24;;;;;;;;;;;12.90;99.90;;;;;;5079104;28;19927;-73
2022/09/26 09:59:56;;;;;;;;;;;12.90;99.90;;;;;;5052926;28;19928;-73
2022/09/26 10:02:36;;;;;;;;;;;13.00;99.90;;;;;;5081206;28;19932;-73
2022/09/26 10:05:22;;;;;;;;;;;13.10;99.90;;;;;;5060809;28;19950;-73
2022/09/26 10:07:58;;;;;;;;;;;13.10;99.90;;;;;;5035519;28;19924;-73
2022/09/26 10:11:06;;;;;;;;;;;13.20;99.90;;;;;;5076320;28;19932;-73
2022/09/26 10:14:12;;;;;;;;;;;13.50;99.90;;;;;;5041558;28;19924;-73
2022/09/26 10:17:13;;;;;;;;;;;13.80;99.90;;;;;;5064418;28;19928;-73
2022/09/26 10:20:29;;;;;;;;;;;13.80;99.90;;;;;;5064126;28;19932;-73
2022/09/26 10:23:05;;;;;;;;;;;13.80;99.90;;;;;;5057297;28;19925;-73
2022/09/26 10:25:36;;;;;;;;;;;13.60;99.90;;;;;;5073987;28;19935;-73
2022/09/26 10:28:20;;;;;;;;;;;13.40;99.90;;;;;;5037309;28;19935;-73
2022/09/26 10:30:55;;;;;;;;;;;13.30;99.90;;;;;;5047080;28;20348;-73
2022/09/26 10:33:29;;;;;;;;;;;13.20;99.90;;;;;;5051249;28;20072;-73
2022/09/26 10:36:18;;;;;;;;;;;13.10;99.90;;;;;;5062895;28;19925;-73
2022/09/26 10:40:44;;;;;;;;;;;13.10;99.90;;;;;;5072109;28;19924;-73
2022/09/26 10:41:38;;;;;;;;;;;13.00;99.90;;;;;;5053105;28;19951;-73
2022/09/26 10:44:20;;;;;;;;;;;12.90;99.90;;;;;;5059260;28;20394;-73
2022/09/26 10:47:25;;;;;;;;;;;12.80;99.90;;;;;;5038468;28;19925;-73
2022/09/26 10:50:27;;;;;;;;;;;12.80;99.90;;;;;;5083047;28;19935;-73
2022/09/26 10:53:18;;;;;;;;;;;12.70;99.90;;;;;;5076859;28;20421;-74
2022/09/26 10:55:56;;;;;;;;;;;12.80;99.90;;;;;;5055439;28;20007;-72
2022/09/26 10:58:31;;;;;;;;;;;12.70;99.90;;;;;;5064260;28;20259;-73
2022/09/26 11:01:04;;;;;;;;;;;12.60;99.90;;;;;;5066255;28;19925;-74
2022/09/26 11:03:40;;;;;;;;;;;12.50;99.90;;;;;;5066995;28;19934;-73
2022/09/26 11:06:22;;;;;;;;;;;12.60;99.90;;;;;;5082344;28;19970;-73
2022/09/26 11:09:02;;;;;;;;;;;12.80;99.90;;;;;;5058873;28;19924;-73
2022/09/26 11:12:22;;;;;;;;;;;13.00;99.90;;;;;;5083664;28;20019;-73
2022/09/26 11:15:12;;;;;;;;;;;13.20;99.90;;;;;;5056623;28;20034;-73
2022/09/26 11:17:49;;;;;;;;;;;13.50;99.90;;;;;;5056546;28;20007;-74
2022/09/26 11:20:36;;;;;;;;;;;13.70;99.90;;;;;;5069020;28;19924;-73
2022/09/26 11:23:08;;;;;;;;;;;13.80;99.90;;;;;;5069717;28;19939;-73
2022/09/26 11:26:02;;;;;;;;;;;14.10;99.90;;;;;;5079285;28;20341;-73
2022/09/26 11:28:50;;;;;;;;;;;14.40;99.90;;;;;;5055836;28;20659;-74
2022/09/26 11:31:29;;;;;;;;;;;14.60;99.90;;;;;;5069541;28;19931;-73
2022/09/26 11:34:39;;;;;;;;;;;14.80;99.90;;;;;;5052830;28;19925;-74
2022/09/26 11:37:17;;;;;;;;;;;15.00;99.90;;;;;;5058179;28;20275;-74
2022/09/26 11:40:08;;;;;;;;;;;15.00;99.90;;;;;;5071407;28;19980;-73
2022/09/26 11:42:59;;;;;;;;;;;15.00;99.90;;;;;;5059070;28;20405;-73
2022/09/26 11:45:32;;;;;;;;;;;14.70;99.90;;;;;;5053384;28;19928;-74
2022/09/26 11:48:53;;;;;;;;;;;14.70;99.90;;;;;;5027178;28;19929;-73
2022/09/26 11:52:13;;;;;;;;;;;14.60;99.90;;;;;;5039370;28;19925;-74
2022/09/26 11:55:00;;;;;;;;;;;14.50;99.90;;;;;;5061488;28;19925;-73
2022/09/26 11:57:36;;;;;;;;;;;14.40;99.90;;;;;;5038457;28;19925;-73
2022/09/26 12:00:05;;;;;;;;;;;14.40;99.90;;;;;;5059328;28;19931;-74
2022/09/26 12:02:54;;;;;;;;;;;14.40;99.90;;;;;;5066392;28;19924;-73
2022/09/26 12:05:46;;;;;;;;;;;14.30;99.90;;;;;;5064008;28;20403;-74
2022/09/26 12:08:23;;;;;;;;;;;14.30;99.90;;;;;;5070877;28;20643;-73
2022/09/26 12:11:14;;;;;;;;;;;14.40;99.90;;;;;;5076773;28;19955;-72
2022/09/26 12:13:56;;;;;;;;;;;14.40;99.90;;;;;;5060231;28;19925;-73
2022/09/26 12:16:39;;;;;;;;;;;14.40;99.90;;;;;;5058321;28;20353;-74
2022/09/26 12:19:33;;;;;;;;;;;14.50;99.90;;;;;;5045331;28;19936;-73
2022/09/26 12:22:28;;;;;;;;;;;14.60;99.90;;;;;;5078497;28;19974;-74
2022/09/26 12:25:10;;;;;;;;;;;14.90;99.90;;;;;;5062157;28;19928;-73
2022/09/26 12:27:42;;;;;;;;;;;15.10;99.90;;;;;;5068054;28;19940;-73
2022/09/26 12:30:18;;;;;;;;;;;15.20;99.90;;;;;;5063037;28;19979;-74
2022/09/26 12:33:03;;;;;;;;;;;15.20;99.90;;;;;;5072123;28;19929;-73
2022/09/26 12:35:44;;;;;;;;;;;15.20;99.90;;;;;;5065572;28;19973;-72
2022/09/26 12:38:31;;;;;;;;;;;15.40;99.90;;;;;;5076502;28;19935;-73
2022/09/26 12:41:21;;;;;;;;;;;15.20;99.90;;;;;;5071848;28;20159;-73
2022/09/26 12:43:51;;;;;;;;;;;15.00;99.90;;;;;;5041955;28;20727;-74
2022/09/26 12:46:36;;;;;;;;;;;14.70;99.90;;;;;;5038798;28;19935;-73
2022/09/26 12:49:10;;;;;;;;;;;14.70;99.90;;;;;;5069918;28;20420;-73
2022/09/26 12:51:54;;;;;;;;;;;14.70;99.90;;;;;;5070972;28;19932;-73
2022/09/26 12:54:45;;;;;;;;;;;14.60;99.90;;;;;;5038210;28;20406;-72
2022/09/26 12:57:26;;;;;;;;;;;14.60;99.90;;;;;;5068954;28;19936;-74
2022/09/26 12:59:57;;;;;;;;;;;14.70;99.90;;;;;;5058939;28;19990;-74
2022/09/26 13:02:47;;;;;;;;;;;14.70;99.90;;;;;;5067684;28;19928;-74
2022/09/26 13:05:35;;;;;;;;;;;14.60;99.90;;;;;;5059438;28;19975;-73
2022/09/26 13:08:10;;;;;;;;;;;14.60;99.90;;;;;;5076694;28;19931;-73
2022/09/26 13:10:42;;;;;;;;;;;14.50;99.90;;;;;;5068582;28;19928;-73
2022/09/26 13:13:22;;;;;;;;;;;14.40;99.90;;;;;;5056585;28;20406;-73
2022/09/26 13:16:18;;;;;;;;;;;14.30;99.90;;;;;;5065737;28;19937;-73
2022/09/26 13:18:50;;;;;;;;;;;14.30;99.90;;;;;;5054950;28;20584;-73
2022/09/26 13:21:33;;;;;;;;;;;14.40;99.90;;;;;;5061598;28;19928;-73
2022/09/26 13:24:12;;;;;;;;;;;14.60;99.90;;;;;;5061537;28;19970;-73
2022/09/26 13:26:47;;;;;;;;;;;14.90;99.90;;;;;;5058652;28;19925;-72
2022/09/26 13:29:20;;;;;;;;;;;15.20;99.90;;;;;;5066362;28;19958;-73
2022/09/26 13:32:03;;;;;;;;;;;15.40;99.90;;;;;;5064581;28;19924;-71
2022/09/26 13:34:37;;;;;;;;;;;15.50;99.90;;;;;;5065156;28;19925;-72
2022/09/26 13:37:16;;;;;;;;;;;15.60;99.90;;;;;;5078816;28;19928;-73
2022/09/26 13:39:54;;;;;;;;;;;15.60;99.90;;;;;;5055321;28;19928;-73
2022/09/26 13:42:26;;;;;;;;;;;15.60;99.90;;;;;;5070934;28;19928;-73
2022/09/26 13:45:15;;;;;;;;;;;15.40;99.90;;;;;;5055001;28;20362;-73
2022/09/26 13:47:53;;;;;;;;;;;15.10;99.90;;;;;;5074010;28;20569;-73
2022/09/26 13:50:38;;;;;;;;;;;15.20;99.90;;;;;;5067283;28;20427;-73
2022/09/26 13:53:17;;;;;;;;;;;15.10;99.90;;;;;;5034933;28;19928;-73
2022/09/26 13:55:44;;;;;;;;;;;15.10;99.90;;;;;;5065166;28;19928;-73
2022/09/26 13:58:20;;;;;;;;;;;15.20;99.90;;;;;;5066138;28;19978;-73
2022/09/26 14:00:52;;;;;;;;;;;15.20;99.90;;;;;;5064460;28;20509;-72
2022/09/26 14:03:24;;;;;;;;;;;15.20;99.90;;;;;;5073284;28;20068;-73
2022/09/26 14:06:06;;;;;;;;;;;15.10;99.90;;;;;;5068677;28;20307;-73
2022/09/26 14:11:32;;;;;;;;;;;15.10;99.90;;;;;;5067561;28;19928;-73
2022/09/26 14:14:14;;;;;;;;;;;15.40;99.90;;;;;;5051550;28;19924;-73
2022/09/26 14:16:47;;;;;;;;;;;15.60;99.90;;;;;;5081013;28;19932;-74
2022/09/26 14:19:17;;;;;;;;;;;15.90;99.90;;;;;;5054018;28;19924;-73
2022/09/26 14:22:04;;;;;;;;;;;16.10;99.90;;;;;;5054737;28;19987;-73
2022/09/26 14:24:35;;;;;;;;;;;16.10;99.90;;;;;;5057000;28;19929;-73
2022/09/26 14:27:12;;;;;;;;;;;16.00;99.90;;;;;;5061419;28;19924;-73
2022/09/26 14:29:58;;;;;;;;;;;15.80;99.90;;;;;;5072679;28;19924;-73
2022/09/26 14:32:26;;;;;;;;;;;15.50;99.90;;;;;;5054663;28;19931;-73
2022/09/26 14:34:59;;;;;;;;;;;15.40;99.90;;;;;;5068119;28;19986;-74
2022/09/26 14:37:39;;;;;;;;;;;15.50;99.90;;;;;;5061677;28;19929;-73
2022/09/26 14:40:15;;;;;;;;;;;15.60;99.90;;;;;;5065633;28;19982;-73
2022/09/26 14:42:47;;;;;;;;;;;15.70;99.90;;;;;;5041092;28;20496;-73
2022/09/26 14:45:16;;;;;;;;;;;15.90;99.90;;;;;;5071856;28;19928;-74
2022/09/26 14:47:59;;;;;;;;;;;15.90;99.90;;;;;;5075814;28;19931;-72
2022/09/26 14:50:35;;;;;;;;;;;15.60;99.90;;;;;;5071868;28;19930;-73
2022/09/26 14:53:19;;;;;;;;;;;15.40;99.90;;;;;;5045538;28;19935;-74
2022/09/26 14:55:58;;;;;;;;;;;15.70;99.90;;;;;;5076597;28;19983;-73
2022/09/26 14:58:31;;;;;;;;;;;16.00;99.90;;;;;;5063969;28;19925;-73
2022/09/26 15:01:03;;;;;;;;;;;16.30;99.90;;;;;;5070975;28;20424;-74
2022/09/26 15:03:35;;;;;;;;;;;16.30;99.90;;;;;;5063157;28;20279;-73
2022/09/26 15:06:10;;;;;;;;;;;16.40;99.90;;;;;;5060476;28;19935;-72
2022/09/26 15:08:42;;;;;;;;;;;16.60;99.90;;;;;;5067455;28;19928;-74
2022/09/26 15:11:24;;;;;;;;;;;16.70;99.90;;;;;;5064325;28;19924;-74
2022/09/26 15:13:51;;;;;;;;;;;17.00;99.90;;;;;;5063805;28;20508;-73
2022/09/26 15:16:23;;;;;;;;;;;17.40;99.90;;;;;;5078225;28;19935;-73
2022/09/26 15:19:01;;;;;;;;;;;17.20;99.90;;;;;;5076223;28;19928;-74
2022/09/26 15:21:39;;;;;;;;;;;17.20;99.90;;;;;;5063324;28;20507;-74
2022/09/26 15:24:26;;;;;;;;;;;17.30;99.90;;;;;;5064750;28;19929;-74
2022/09/26 15:26:54;;;;;;;;;;;17.30;99.90;;;;;;5045155;28;19928;-74
2022/09/26 15:29:26;;;;;;;;;;;17.30;99.90;;;;;;5081040;28;19951;-73
2022/09/26 15:31:58;;;;;;;;;;;17.30;99.90;;;;;;5075638;28;19924;-74
2022/09/26 15:34:32;;;;;;;;;;;16.90;99.90;;;;;;5055434;28;19925;-74
2022/09/26 15:37:18;;;;;;;;;;;16.50;99.90;;;;;;5058434;28;19936;-74
2022/09/26 15:39:50;;;;;;;;;;;16.00;99.90;;;;;;5076612;28;19928;-74